Sydney Kingsford Smith International Airport
YSSY : now visible

Airfield :











YOU CAN JOIN US ON...

 
LOGIN :

Register | Disclaimer

   EN    FR    IT 

 









Legend :    VFR   Marginal VFR   IFR   Intensive IFR   Very Intensive IFR
Visi :
Ceiling :
>= 8 km
>= 3000ft
5 to 8 km
1000 to 3000 ft
1500m to 5 km
500 to 1000 ft
800 to 1500m
200 to 500 ft
< 800m
< 200 ft
Symbols :   Thunderstorms  Fog  Heavy snow  Heavy precipitations  Wind > 20 kt






- Airport Elevation : 21 ft
- IATA code : SYD


YSSY - Sydney Kingsford Smith International

CURRENT METAR :
  • 251000Z 02005KT 9999 FEW008 SCT110 26/23 Q1012 TEMPO 1000/1300 6000 -SHRA BKN010

EXPIRED METARs :
  • 250930Z 03007KT 9999 FEW008 BKN022 26/23 Q1012 TEMPO 0930/1230 6000 -SHRA BKN010
  • 250900Z 05010KT 9999 FEW008 BKN012 BKN020 26/23 Q1012 FM0945 05010KT 9999 -SHRA SCT012 BKN020 TEMPO 0945/1200 6000 -SHRA BKN010
  • 250830Z 05011KT 9999 FEW008 BKN012 BKN022 26/23 Q1011 FM0845 05010KT 9999 -SHRA SCT012 BKN022 INTER 0845/1130 8000 -SHRA BKN012
  • 250800Z 05013KT 9999 FEW008 SCT011 BKN026 26/23 Q1011 INTER 0800/1100 6000 -SHRA BKN010
  • 250730Z 05012KT 9999 FEW008 BKN011 26/23 Q1011 FM0755 06010KT 9999 -SHRA SCT020 BKN030 INTER 0730/1030 6000 -SHRA BKN010

TAF AMD TAF YSSY
Valid from the 25 at 09:00 until the 26 at 12:00 UTC


250907Z 2509/2612 05010KT 9999 -SHRA SCT012 BKN020
FM251400 VRB03KT 9999 -SHRA SCT012 BKN020
FM260000 05012KT 9999 -SHRA FEW035 SCT060
TEMPO 2509/2522 6000 -SHRA BKN010
PROB30
TEMPO 2603/2607 VRB15G25KT 3000 TSRA SCT015 SCT060CB



MET'MAP, your aeronautical weather chart ! - Copyright ORBIFLY December 2007 - Disclaimer

ORBIFLY MET'MAP TEAM :

Programming & Development : Alexandra Zaïnal
Concept & original design : Baudouin d'Aumeries
Assistance for programming : Marc-Olivier Méhu
Technical & hardware support : Manuel Goepfert

Contact : metmap@orbifly.com




SOURCES & CREDITS :

   NOAA       Earth
Advisory